sensor_id;sensor_type;location;lat;lon;timestamp;pressure;altitude;pressure_sealevel;temperature;humidity
596;BME280;19946;49.306;11.350;2024-01-25T00:01:20;97251.75;;;6.32;100.00
596;BME280;19946;49.306;11.350;2024-01-25T00:04:20;97254.22;;;6.18;100.00
596;BME280;19946;49.306;11.350;2024-01-25T00:07:20;97239.16;;;6.12;100.00
596;BME280;19946;49.306;11.350;2024-01-25T00:10:21;97239.56;;;6.20;100.00
596;BME280;19946;49.306;11.350;2024-01-25T00:13:21;97250.50;;;6.08;100.00
596;BME280;19946;49.306;11.350;2024-01-25T00:16:22;97256.00;;;6.02;100.00
596;BME280;19946;49.306;11.350;2024-01-25T00:19:22;97249.75;;;6.06;100.00
596;BME280;19946;49.306;11.350;2024-01-25T00:22:22;97255.16;;;6.17;100.00
596;BME280;19946;49.306;11.350;2024-01-25T00:25:23;97261.03;;;6.19;100.00
596;BME280;19946;49.306;11.350;2024-01-25T00:28:23;97243.22;;;6.00;100.00
596;BME280;19946;49.306;11.350;2024-01-25T00:31:23;97248.75;;;6.08;100.00
596;BME280;19946;49.306;11.350;2024-01-25T00:34:24;97255.50;;;6.11;100.00
596;BME280;19946;49.306;11.350;2024-01-25T00:37:25;97253.00;;;6.09;100.00
596;BME280;19946;49.306;11.350;2024-01-25T00:40:25;97254.31;;;6.01;100.00
596;BME280;19946;49.306;11.350;2024-01-25T00:43:26;97241.91;;;5.93;100.00
596;BME280;19946;49.306;11.350;2024-01-25T00:46:27;97248.59;;;5.96;100.00
596;BME280;19946;49.306;11.350;2024-01-25T00:49:27;97251.69;;;6.02;100.00
596;BME280;19946;49.306;11.350;2024-01-25T00:52:28;97250.44;;;5.94;100.00
596;BME280;19946;49.306;11.350;2024-01-25T00:55:28;97226.56;;;5.92;100.00
596;BME280;19946;49.306;11.350;2024-01-25T00:58:29;97236.00;;;6.07;100.00
596;BME280;19946;49.306;11.350;2024-01-25T01:01:30;97244.38;;;5.95;100.00
596;BME280;19946;49.306;11.350;2024-01-25T01:04:30;97243.56;;;5.94;100.00
596;BME280;19946;49.306;11.350;2024-01-25T01:07:31;97235.50;;;6.00;100.00
596;BME280;19946;49.306;11.350;2024-01-25T01:10:31;97233.63;;;5.86;100.00
596;BME280;19946;49.306;11.350;2024-01-25T01:13:31;97234.72;;;5.82;100.00
596;BME280;19946;49.306;11.350;2024-01-25T01:16:32;97228.06;;;5.78;100.00
596;BME280;19946;49.306;11.350;2024-01-25T01:19:33;97242.97;;;5.89;100.00
596;BME280;19946;49.306;11.350;2024-01-25T01:22:33;97248.44;;;5.99;100.00
596;BME280;19946;49.306;11.350;2024-01-25T01:25:35;97227.03;;;5.98;100.00
596;BME280;19946;49.306;11.350;2024-01-25T01:28:35;97238.50;;;5.93;100.00
596;BME280;19946;49.306;11.350;2024-01-25T01:31:36;97229.59;;;5.98;100.00
596;BME280;19946;49.306;11.350;2024-01-25T01:34:36;97226.63;;;6.06;100.00
596;BME280;19946;49.306;11.350;2024-01-25T01:37:36;97224.31;;;6.01;100.00
596;BME280;19946;49.306;11.350;2024-01-25T01:40:36;97232.09;;;6.00;100.00
596;BME280;19946;49.306;11.350;2024-01-25T01:43:37;97226.81;;;6.03;100.00
596;BME280;19946;49.306;11.350;2024-01-25T01:46:37;97233.91;;;5.98;100.00
596;BME280;19946;49.306;11.350;2024-01-25T01:49:40;97224.88;;;5.91;100.00
596;BME280;19946;49.306;11.350;2024-01-25T01:52:40;97232.06;;;5.84;100.00
596;BME280;19946;49.306;11.350;2024-01-25T01:55:41;97225.50;;;5.78;100.00
596;BME280;19946;49.306;11.350;2024-01-25T01:58:43;97226.22;;;5.65;100.00
596;BME280;19946;49.306;11.350;2024-01-25T02:01:43;97214.47;;;5.61;100.00
596;BME280;19946;49.306;11.350;2024-01-25T02:04:44;97226.75;;;5.71;100.00
596;BME280;19946;49.306;11.350;2024-01-25T02:07:44;97230.03;;;5.73;100.00
596;BME280;19946;49.306;11.350;2024-01-25T02:10:45;97220.78;;;5.71;100.00
596;BME280;19946;49.306;11.350;2024-01-25T02:13:45;97226.50;;;5.76;100.00
596;BME280;19946;49.306;11.350;2024-01-25T02:16:45;97214.81;;;5.70;100.00
596;BME280;19946;49.306;11.350;2024-01-25T02:19:47;97213.84;;;5.89;100.00
596;BME280;19946;49.306;11.350;2024-01-25T02:22:47;97245.88;;;5.99;100.00
596;BME280;19946;49.306;11.350;2024-01-25T02:25:47;97236.91;;;5.90;100.00
596;BME280;19946;49.306;11.350;2024-01-25T02:28:48;97242.16;;;5.87;100.00
596;BME280;19946;49.306;11.350;2024-01-25T02:31:48;97232.44;;;5.94;100.00
596;BME280;19946;49.306;11.350;2024-01-25T02:34:48;97251.75;;;6.01;100.00
596;BME280;19946;49.306;11.350;2024-01-25T02:37:49;97235.66;;;5.97;100.00
596;BME280;19946;49.306;11.350;2024-01-25T02:40:50;97246.22;;;5.93;100.00
596;BME280;19946;49.306;11.350;2024-01-25T02:43:51;97233.63;;;5.71;100.00
596;BME280;19946;49.306;11.350;2024-01-25T02:46:51;97241.09;;;5.75;100.00
596;BME280;19946;49.306;11.350;2024-01-25T02:49:52;97220.44;;;5.61;100.00
596;BME280;19946;49.306;11.350;2024-01-25T02:52:52;97224.50;;;5.65;100.00
596;BME280;19946;49.306;11.350;2024-01-25T02:55:52;97245.72;;;5.69;100.00
596;BME280;19946;49.306;11.350;2024-01-25T02:58:53;97234.69;;;5.67;100.00
596;BME280;19946;49.306;11.350;2024-01-25T03:01:54;97241.75;;;5.79;100.00
596;BME280;19946;49.306;11.350;2024-01-25T03:04:54;97249.38;;;5.80;100.00
596;BME280;19946;49.306;11.350;2024-01-25T03:07:55;97241.09;;;5.75;100.00
596;BME280;19946;49.306;11.350;2024-01-25T03:10:55;97236.44;;;5.66;100.00
596;BME280;19946;49.306;11.350;2024-01-25T03:13:56;97238.78;;;5.86;100.00
596;BME280;19946;49.306;11.350;2024-01-25T03:16:57;97238.84;;;5.85;100.00
596;BME280;19946;49.306;11.350;2024-01-25T03:19:57;97221.88;;;5.82;100.00
596;BME280;19946;49.306;11.350;2024-01-25T03:22:58;97228.56;;;5.69;100.00
596;BME280;19946;49.306;11.350;2024-01-25T03:25:58;97250.03;;;5.68;100.00
596;BME280;19946;49.306;11.350;2024-01-25T03:28:58;97248.22;;;5.70;100.00
596;BME280;19946;49.306;11.350;2024-01-25T03:31:59;97238.16;;;5.66;100.00
596;BME280;19946;49.306;11.350;2024-01-25T03:34:59;97258.84;;;5.80;100.00
596;BME280;19946;49.306;11.350;2024-01-25T03:37:59;97257.59;;;5.71;100.00
596;BME280;19946;49.306;11.350;2024-01-25T03:41:00;97256.75;;;5.71;100.00
596;BME280;19946;49.306;11.350;2024-01-25T03:44:00;97245.94;;;5.64;100.00
596;BME280;19946;49.306;11.350;2024-01-25T03:47:00;97239.22;;;5.46;100.00
596;BME280;19946;49.306;11.350;2024-01-25T03:50:01;97227.69;;;5.53;100.00
596;BME280;19946;49.306;11.350;2024-01-25T03:53:01;97269.06;;;5.64;100.00
596;BME280;19946;49.306;11.350;2024-01-25T03:56:02;97272.47;;;5.65;100.00
596;BME280;19946;49.306;11.350;2024-01-25T03:59:03;97260.25;;;5.53;100.00
596;BME280;19946;49.306;11.350;2024-01-25T04:02:03;97279.59;;;5.60;100.00
596;BME280;19946;49.306;11.350;2024-01-25T04:05:04;97288.72;;;5.65;100.00
596;BME280;19946;49.306;11.350;2024-01-25T04:08:05;97275.94;;;5.64;100.00
596;BME280;19946;49.306;11.350;2024-01-25T04:11:05;97293.72;;;5.68;100.00
596;BME280;19946;49.306;11.350;2024-01-25T04:14:06;97279.34;;;5.64;100.00
596;BME280;19946;49.306;11.350;2024-01-25T04:17:06;97291.00;;;5.71;100.00
596;BME280;19946;49.306;11.350;2024-01-25T04:20:07;97291.16;;;5.68;100.00
596;BME280;19946;49.306;11.350;2024-01-25T04:23:07;97286.88;;;5.52;100.00
596;BME280;19946;49.306;11.350;2024-01-25T04:26:08;97289.06;;;5.59;100.00
596;BME280;19946;49.306;11.350;2024-01-25T04:29:08;97280.94;;;5.67;100.00
596;BME280;19946;49.306;11.350;2024-01-25T04:32:08;97278.38;;;5.67;100.00
596;BME280;19946;49.306;11.350;2024-01-25T04:35:09;97289.56;;;5.66;100.00
596;BME280;19946;49.306;11.350;2024-01-25T04:38:10;97270.88;;;5.46;100.00
596;BME280;19946;49.306;11.350;2024-01-25T04:41:10;97271.00;;;5.43;100.00
596;BME280;19946;49.306;11.350;2024-01-25T04:44:10;97280.78;;;5.37;100.00
596;BME280;19946;49.306;11.350;2024-01-25T04:47:10;97278.50;;;5.31;100.00
596;BME280;19946;49.306;11.350;2024-01-25T04:50:11;97294.41;;;5.55;100.00
596;BME280;19946;49.306;11.350;2024-01-25T04:53:11;97291.56;;;5.43;100.00
596;BME280;19946;49.306;11.350;2024-01-25T04:56:11;97288.78;;;5.48;100.00
596;BME280;19946;49.306;11.350;2024-01-25T04:59:12;97289.91;;;5.42;100.00
596;BME280;19946;49.306;11.350;2024-01-25T05:02:12;97296.72;;;5.26;100.00
596;BME280;19946;49.306;11.350;2024-01-25T05:05:13;97312.91;;;5.28;100.00
596;BME280;19946;49.306;11.350;2024-01-25T05:08:13;97316.31;;;5.29;100.00
596;BME280;19946;49.306;11.350;2024-01-25T05:11:13;97318.47;;;5.36;100.00
596;BME280;19946;49.306;11.350;2024-01-25T05:14:14;97336.31;;;5.39;100.00
596;BME280;19946;49.306;11.350;2024-01-25T05:17:14;97320.69;;;5.27;100.00
596;BME280;19946;49.306;11.350;2024-01-25T05:20:14;97334.78;;;5.35;100.00
596;BME280;19946;49.306;11.350;2024-01-25T05:23:17;97332.59;;;5.28;100.00
596;BME280;19946;49.306;11.350;2024-01-25T05:26:17;97357.06;;;5.35;100.00
596;BME280;19946;49.306;11.350;2024-01-25T05:29:18;97359.03;;;5.47;100.00
596;BME280;19946;49.306;11.350;2024-01-25T05:32:19;97360.09;;;5.43;100.00
596;BME280;19946;49.306;11.350;2024-01-25T05:35:21;97367.97;;;5.40;100.00
596;BME280;19946;49.306;11.350;2024-01-25T05:38:21;97336.53;;;5.18;100.00
596;BME280;19946;49.306;11.350;2024-01-25T05:41:22;97351.94;;;5.35;100.00
596;BME280;19946;49.306;11.350;2024-01-25T05:44:22;97345.91;;;5.19;100.00
596;BME280;19946;49.306;11.350;2024-01-25T05:47:22;97373.06;;;5.23;100.00
596;BME280;19946;49.306;11.350;2024-01-25T05:50:22;97388.09;;;5.30;100.00
596;BME280;19946;49.306;11.350;2024-01-25T05:53:23;97387.31;;;5.30;100.00
596;BME280;19946;49.306;11.350;2024-01-25T05:56:23;97390.66;;;5.30;100.00
596;BME280;19946;49.306;11.350;2024-01-25T05:59:24;97404.19;;;5.34;100.00
596;BME280;19946;49.306;11.350;2024-01-25T06:02:24;97394.38;;;5.25;100.00
596;BME280;19946;49.306;11.350;2024-01-25T06:05:24;97375.84;;;5.01;100.00
596;BME280;19946;49.306;11.350;2024-01-25T06:08:25;97421.88;;;5.23;100.00
596;BME280;19946;49.306;11.350;2024-01-25T06:11:25;97422.19;;;5.34;100.00
596;BME280;19946;49.306;11.350;2024-01-25T06:14:26;97413.50;;;5.36;100.00
596;BME280;19946;49.306;11.350;2024-01-25T06:17:26;97401.88;;;5.29;100.00
596;BME280;19946;49.306;11.350;2024-01-25T06:20:27;97390.22;;;5.22;100.00
596;BME280;19946;49.306;11.350;2024-01-25T06:23:27;97408.25;;;5.21;100.00
596;BME280;19946;49.306;11.350;2024-01-25T06:26:27;97404.13;;;5.18;100.00
596;BME280;19946;49.306;11.350;2024-01-25T06:29:28;97412.28;;;5.26;100.00
596;BME280;19946;49.306;11.350;2024-01-25T06:32:28;97393.56;;;5.24;100.00
596;BME280;19946;49.306;11.350;2024-01-25T06:35:28;97407.88;;;5.11;100.00
596;BME280;19946;49.306;11.350;2024-01-25T06:38:29;97409.22;;;5.01;100.00
596;BME280;19946;49.306;11.350;2024-01-25T06:41:29;97414.91;;;4.89;100.00
596;BME280;19946;49.306;11.350;2024-01-25T06:44:30;97413.84;;;4.75;100.00
596;BME280;19946;49.306;11.350;2024-01-25T06:47:30;97405.81;;;4.64;100.00
596;BME280;19946;49.306;11.350;2024-01-25T06:50:30;97408.44;;;4.63;100.00
596;BME280;19946;49.306;11.350;2024-01-25T06:53:31;97394.88;;;4.42;100.00
596;BME280;19946;49.306;11.350;2024-01-25T06:56:32;97397.81;;;4.33;100.00
596;BME280;19946;49.306;11.350;2024-01-25T06:59:34;97420.69;;;4.37;100.00
596;BME280;19946;49.306;11.350;2024-01-25T07:02:34;97419.72;;;4.21;100.00
596;BME280;19946;49.306;11.350;2024-01-25T07:05:35;97427.25;;;4.24;100.00
596;BME280;19946;49.306;11.350;2024-01-25T07:08:35;97419.03;;;4.18;100.00
596;BME280;19946;49.306;11.350;2024-01-25T07:11:36;97425.81;;;4.19;100.00
596;BME280;19946;49.306;11.350;2024-01-25T07:14:36;97422.66;;;4.12;100.00
596;BME280;19946;49.306;11.350;2024-01-25T07:17:36;97422.47;;;4.17;100.00
596;BME280;19946;49.306;11.350;2024-01-25T07:20:37;97419.28;;;4.12;100.00
596;BME280;19946;49.306;11.350;2024-01-25T07:23:37;97453.72;;;4.06;100.00
596;BME280;19946;49.306;11.350;2024-01-25T07:26:37;97446.66;;;3.91;100.00
596;BME280;19946;49.306;11.350;2024-01-25T07:29:38;97460.38;;;3.90;100.00
596;BME280;19946;49.306;11.350;2024-01-25T07:32:38;97446.16;;;3.83;100.00
596;BME280;19946;49.306;11.350;2024-01-25T07:35:42;97454.44;;;3.89;100.00
596;BME280;19946;49.306;11.350;2024-01-25T07:38:45;97459.97;;;3.79;100.00
596;BME280;19946;49.306;11.350;2024-01-25T07:41:49;97470.31;;;3.97;100.00
596;BME280;19946;49.306;11.350;2024-01-25T07:44:51;97474.78;;;3.92;100.00
596;BME280;19946;49.306;11.350;2024-01-25T07:47:51;97473.19;;;3.90;100.00
596;BME280;19946;49.306;11.350;2024-01-25T07:50:52;97446.94;;;3.85;100.00
596;BME280;19946;49.306;11.350;2024-01-25T07:53:52;97466.91;;;3.97;100.00
596;BME280;19946;49.306;11.350;2024-01-25T07:56:52;97453.22;;;3.98;100.00
596;BME280;19946;49.306;11.350;2024-01-25T07:59:53;97454.59;;;4.05;100.00
596;BME280;19946;49.306;11.350;2024-01-25T08:02:53;97452.09;;;4.03;100.00
596;BME280;19946;49.306;11.350;2024-01-25T08:05:53;97473.56;;;4.21;100.00
596;BME280;19946;49.306;11.350;2024-01-25T08:08:54;97472.41;;;4.28;100.00
596;BME280;19946;49.306;11.350;2024-01-25T08:11:54;97463.31;;;4.21;100.00
596;BME280;19946;49.306;11.350;2024-01-25T08:14:54;97458.69;;;4.29;100.00
596;BME280;19946;49.306;11.350;2024-01-25T08:17:55;97471.28;;;4.34;100.00
596;BME280;19946;49.306;11.350;2024-01-25T08:20:55;97466.63;;;4.23;100.00
596;BME280;19946;49.306;11.350;2024-01-25T08:23:56;97474.31;;;4.23;100.00
596;BME280;19946;49.306;11.350;2024-01-25T08:26:56;97451.00;;;4.29;100.00
596;BME280;19946;49.306;11.350;2024-01-25T08:29:57;97459.25;;;4.55;100.00
596;BME280;19946;49.306;11.350;2024-01-25T08:32:58;97483.09;;;4.57;100.00
596;BME280;19946;49.306;11.350;2024-01-25T08:35:59;97476.47;;;4.53;100.00
596;BME280;19946;49.306;11.350;2024-01-25T08:38:59;97466.13;;;4.54;100.00
596;BME280;19946;49.306;11.350;2024-01-25T08:41:59;97486.72;;;4.71;100.00
596;BME280;19946;49.306;11.350;2024-01-25T08:45:06;97480.41;;;4.78;100.00
596;BME280;19946;49.306;11.350;2024-01-25T08:48:09;97483.47;;;4.87;100.00
596;BME280;19946;49.306;11.350;2024-01-25T08:51:09;97487.50;;;4.92;100.00
596;BME280;19946;49.306;11.350;2024-01-25T08:54:09;97499.69;;;4.87;100.00
596;BME280;19946;49.306;11.350;2024-01-25T08:57:10;97509.97;;;5.06;100.00
596;BME280;19946;49.306;11.350;2024-01-25T09:00:10;97510.81;;;5.06;100.00
596;BME280;19946;49.306;11.350;2024-01-25T09:03:11;97516.53;;;5.11;100.00
596;BME280;19946;49.306;11.350;2024-01-25T09:06:11;97502.94;;;5.09;100.00
596;BME280;19946;49.306;11.350;2024-01-25T09:09:12;97497.56;;;5.33;100.00
596;BME280;19946;49.306;11.350;2024-01-25T09:12:12;97483.56;;;5.40;100.00
596;BME280;19946;49.306;11.350;2024-01-25T09:15:14;97482.00;;;5.72;100.00
596;BME280;19946;49.306;11.350;2024-01-25T09:18:15;97497.88;;;5.97;100.00
596;BME280;19946;49.306;11.350;2024-01-25T09:21:15;97489.34;;;6.14;100.00
596;BME280;19946;49.306;11.350;2024-01-25T09:24:16;97466.34;;;6.11;100.00
596;BME280;19946;49.306;11.350;2024-01-25T09:27:17;97473.78;;;6.00;100.00
596;BME280;19946;49.306;11.350;2024-01-25T09:30:18;97482.63;;;5.94;100.00
596;BME280;19946;49.306;11.350;2024-01-25T09:33:18;97489.41;;;5.95;100.00
596;BME280;19946;49.306;11.350;2024-01-25T09:36:19;97418.66;;;5.71;100.00
596;BME280;19946;49.306;11.350;2024-01-25T09:39:19;97431.94;;;5.79;100.00
596;BME280;19946;49.306;11.350;2024-01-25T09:42:20;97443.28;;;5.58;100.00
596;BME280;19946;49.306;11.350;2024-01-25T09:45:21;97443.06;;;5.62;100.00
596;BME280;19946;49.306;11.350;2024-01-25T09:48:24;97520.44;;;5.92;100.00
596;BME280;19946;49.306;11.350;2024-01-25T09:51:37;97476.53;;;5.61;100.00
596;BME280;19946;49.306;11.350;2024-01-25T09:54:39;97536.19;;;5.84;100.00
596;BME280;19946;49.306;11.350;2024-01-25T09:57:41;97508.22;;;5.78;100.00
596;BME280;19946;49.306;11.350;2024-01-25T10:00:46;97434.66;;;5.76;100.00
596;BME280;19946;49.306;11.350;2024-01-25T10:03:49;97548.09;;;6.72;100.00
596;BME280;19946;49.306;11.350;2024-01-25T10:06:55;97473.91;;;5.79;100.00
596;BME280;19946;49.306;11.350;2024-01-25T10:09:57;97560.13;;;6.38;100.00
596;BME280;19946;49.306;11.350;2024-01-25T10:12:59;97516.88;;;6.12;100.00
596;BME280;19946;49.306;11.350;2024-01-25T10:16:02;97557.03;;;6.14;100.00
596;BME280;19946;49.306;11.350;2024-01-25T10:19:07;97522.09;;;5.93;100.00
596;BME280;19946;49.306;11.350;2024-01-25T10:22:13;97478.06;;;5.82;100.00
596;BME280;19946;49.306;11.350;2024-01-25T10:25:20;97528.22;;;6.25;100.00
596;BME280;19946;49.306;11.350;2024-01-25T10:28:25;97509.19;;;5.95;100.00
596;BME280;19946;49.306;11.350;2024-01-25T10:31:36;97472.25;;;5.61;100.00
596;BME280;19946;49.306;11.350;2024-01-25T10:34:45;97523.69;;;6.13;100.00
596;BME280;19946;49.306;11.350;2024-01-25T10:37:51;97525.94;;;6.19;100.00
596;BME280;19946;49.306;11.350;2024-01-25T10:41:39;97544.22;;;6.47;100.00
596;BME280;19946;49.306;11.350;2024-01-25T10:44:41;97486.78;;;5.97;100.00
596;BME280;19946;49.306;11.350;2024-01-25T10:47:52;97488.41;;;6.32;100.00
596;BME280;19946;49.306;11.350;2024-01-25T10:50:56;97521.50;;;6.55;100.00
596;BME280;19946;49.306;11.350;2024-01-25T10:54:04;97471.84;;;6.38;100.00
596;BME280;19946;49.306;11.350;2024-01-25T10:57:17;97541.69;;;6.96;100.00
596;BME280;19946;49.306;11.350;2024-01-25T11:00:22;97542.78;;;6.92;100.00
596;BME280;19946;49.306;11.350;2024-01-25T11:03:29;97545.84;;;6.66;100.00
596;BME280;19946;49.306;11.350;2024-01-25T11:07:24;97550.81;;;6.86;100.00
596;BME280;19946;49.306;11.350;2024-01-25T11:10:51;97547.53;;;6.82;100.00
596;BME280;19946;49.306;11.350;2024-01-25T11:13:58;97490.91;;;6.67;100.00
596;BME280;19946;49.306;11.350;2024-01-25T11:17:20;97531.16;;;7.32;100.00
596;BME280;19946;49.306;11.350;2024-01-25T11:20:35;97526.63;;;7.04;100.00
596;BME280;19946;49.306;11.350;2024-01-25T11:24:04;97440.69;;;6.27;100.00
596;BME280;19946;49.306;11.350;2024-01-25T11:27:05;97497.41;;;6.89;100.00
596;BME280;19946;49.306;11.350;2024-01-25T11:30:38;97401.63;;;6.03;100.00
596;BME280;19946;49.306;11.350;2024-01-25T11:33:40;97467.34;;;6.41;100.00
596;BME280;19946;49.306;11.350;2024-01-25T11:36:42;97437.97;;;6.45;100.00
596;BME280;19946;49.306;11.350;2024-01-25T11:39:43;97487.91;;;6.74;100.00
596;BME280;19946;49.306;11.350;2024-01-25T11:42:48;97466.81;;;6.68;100.00
596;BME280;19946;49.306;11.350;2024-01-25T11:45:49;97473.47;;;6.87;100.00
596;BME280;19946;49.306;11.350;2024-01-25T11:48:51;97477.03;;;6.85;100.00
596;BME280;19946;49.306;11.350;2024-01-25T11:51:51;97465.50;;;6.76;100.00
596;BME280;19946;49.306;11.350;2024-01-25T11:54:52;97459.84;;;6.85;100.00
596;BME280;19946;49.306;11.350;2024-01-25T11:57:53;97479.06;;;6.80;100.00
596;BME280;19946;49.306;11.350;2024-01-25T12:00:54;97495.72;;;6.73;100.00
596;BME280;19946;49.306;11.350;2024-01-25T12:03:57;97469.41;;;6.68;100.00
596;BME280;19946;49.306;11.350;2024-01-25T12:07:01;97474.47;;;6.69;100.00
596;BME280;19946;49.306;11.350;2024-01-25T12:10:10;97436.28;;;6.29;100.00
596;BME280;19946;49.306;11.350;2024-01-25T12:13:18;97541.19;;;6.89;100.00
596;BME280;19946;49.306;11.350;2024-01-25T12:16:19;97471.56;;;6.59;100.00
596;BME280;19946;49.306;11.350;2024-01-25T12:19:20;97496.47;;;6.75;100.00
596;BME280;19946;49.306;11.350;2024-01-25T12:22:22;97468.00;;;6.78;100.00
596;BME280;19946;49.306;11.350;2024-01-25T12:25:25;97412.25;;;6.45;100.00
596;BME280;19946;49.306;11.350;2024-01-25T12:28:29;97481.03;;;6.75;100.00
596;BME280;19946;49.306;11.350;2024-01-25T12:31:30;97466.19;;;6.80;100.00
596;BME280;19946;49.306;11.350;2024-01-25T12:34:34;97429.69;;;6.72;100.00
596;BME280;19946;49.306;11.350;2024-01-25T12:37:37;97459.94;;;6.84;100.00
596;BME280;19946;49.306;11.350;2024-01-25T12:40:38;97463.16;;;6.56;100.00
596;BME280;19946;49.306;11.350;2024-01-25T12:43:40;97506.13;;;6.87;100.00
596;BME280;19946;49.306;11.350;2024-01-25T12:46:42;97525.66;;;6.91;100.00
596;BME280;19946;49.306;11.350;2024-01-25T12:49:51;97427.78;;;6.44;100.00
596;BME280;19946;49.306;11.350;2024-01-25T12:52:52;97421.22;;;6.54;100.00
596;BME280;19946;49.306;11.350;2024-01-25T12:55:53;97476.28;;;6.83;100.00
596;BME280;19946;49.306;11.350;2024-01-25T12:58:54;97409.56;;;6.31;100.00
596;BME280;19946;49.306;11.350;2024-01-25T13:01:55;97416.03;;;6.38;100.00
596;BME280;19946;49.306;11.350;2024-01-25T13:04:56;97415.81;;;6.43;100.00
596;BME280;19946;49.306;11.350;2024-01-25T13:07:56;97392.25;;;6.35;100.00
596;BME280;19946;49.306;11.350;2024-01-25T13:10:57;97486.13;;;6.92;100.00
596;BME280;19946;49.306;11.350;2024-01-25T13:13:58;97439.91;;;6.57;100.00
596;BME280;19946;49.306;11.350;2024-01-25T13:16:59;97422.47;;;6.47;100.00
596;BME280;19946;49.306;11.350;2024-01-25T13:20:00;97490.75;;;6.70;100.00
596;BME280;19946;49.306;11.350;2024-01-25T13:23:00;97370.31;;;6.12;100.00
596;BME280;19946;49.306;11.350;2024-01-25T13:26:02;97398.16;;;6.37;100.00
596;BME280;19946;49.306;11.350;2024-01-25T13:29:04;97470.56;;;6.78;100.00
596;BME280;19946;49.306;11.350;2024-01-25T13:32:08;97444.03;;;6.44;100.00
596;BME280;19946;49.306;11.350;2024-01-25T13:35:08;97359.38;;;5.91;100.00
596;BME280;19946;49.306;11.350;2024-01-25T13:38:09;97496.53;;;6.57;100.00
596;BME280;19946;49.306;11.350;2024-01-25T13:41:14;97368.31;;;5.84;100.00
596;BME280;19946;49.306;11.350;2024-01-25T13:44:15;97466.88;;;6.50;100.00
596;BME280;19946;49.306;11.350;2024-01-25T13:47:16;97463.72;;;6.45;100.00
596;BME280;19946;49.306;11.350;2024-01-25T13:50:17;97460.06;;;6.49;100.00
596;BME280;19946;49.306;11.350;2024-01-25T13:53:18;97381.06;;;6.03;100.00
596;BME280;19946;49.306;11.350;2024-01-25T13:56:20;97389.44;;;6.06;100.00
596;BME280;19946;49.306;11.350;2024-01-25T13:59:21;97392.09;;;6.05;100.00
596;BME280;19946;49.306;11.350;2024-01-25T14:02:22;97467.41;;;6.57;100.00
596;BME280;19946;49.306;11.350;2024-01-25T14:05:23;97370.94;;;6.00;100.00
596;BME280;19946;49.306;11.350;2024-01-25T14:08:25;97367.59;;;5.98;100.00
596;BME280;19946;49.306;11.350;2024-01-25T14:11:26;97365.72;;;6.01;100.00
596;BME280;19946;49.306;11.350;2024-01-25T14:14:30;97442.81;;;6.67;100.00
596;BME280;19946;49.306;11.350;2024-01-25T14:17:31;97448.47;;;6.58;100.00
596;BME280;19946;49.306;11.350;2024-01-25T14:20:32;97361.69;;;6.13;100.00
596;BME280;19946;49.306;11.350;2024-01-25T14:23:33;97343.31;;;5.86;100.00
596;BME280;19946;49.306;11.350;2024-01-25T14:26:34;97420.97;;;6.43;100.00
596;BME280;19946;49.306;11.350;2024-01-25T14:29:34;97431.47;;;6.38;100.00
596;BME280;19946;49.306;11.350;2024-01-25T14:32:35;97329.84;;;5.65;100.00
596;BME280;19946;49.306;11.350;2024-01-25T14:35:36;97332.13;;;5.71;100.00
596;BME280;19946;49.306;11.350;2024-01-25T14:38:37;97331.75;;;5.62;100.00
596;BME280;19946;49.306;11.350;2024-01-25T14:41:38;97336.97;;;5.60;100.00
596;BME280;19946;49.306;11.350;2024-01-25T14:44:42;97335.38;;;5.58;100.00
596;BME280;19946;49.306;11.350;2024-01-25T14:47:43;97330.09;;;5.61;100.00
596;BME280;19946;49.306;11.350;2024-01-25T14:50:44;97322.94;;;5.50;100.00
596;BME280;19946;49.306;11.350;2024-01-25T14:53:44;97381.97;;;6.02;100.00
596;BME280;19946;49.306;11.350;2024-01-25T14:56:46;97409.78;;;6.11;100.00
596;BME280;19946;49.306;11.350;2024-01-25T14:59:52;97325.66;;;5.47;100.00
596;BME280;19946;49.306;11.350;2024-01-25T15:02:52;97328.25;;;5.30;100.00
596;BME280;19946;49.306;11.350;2024-01-25T15:05:53;97380.72;;;5.59;100.00
596;BME280;19946;49.306;11.350;2024-01-25T15:08:57;97316.50;;;5.24;100.00
596;BME280;19946;49.306;11.350;2024-01-25T15:11:58;97320.97;;;5.21;100.00
596;BME280;19946;49.306;11.350;2024-01-25T15:14:58;97381.63;;;5.58;100.00
596;BME280;19946;49.306;11.350;2024-01-25T15:18:00;97325.13;;;5.06;100.00
596;BME280;19946;49.306;11.350;2024-01-25T15:21:01;97358.19;;;4.95;100.00
596;BME280;19946;49.306;11.350;2024-01-25T15:24:02;97402.81;;;5.09;100.00
596;BME280;19946;49.306;11.350;2024-01-25T15:27:05;97337.66;;;4.59;100.00
596;BME280;19946;49.306;11.350;2024-01-25T15:30:07;97383.59;;;4.82;100.00
596;BME280;19946;49.306;11.350;2024-01-25T15:33:09;97377.09;;;4.75;100.00
596;BME280;19946;49.306;11.350;2024-01-25T15:36:10;97311.75;;;4.27;100.00
596;BME280;19946;49.306;11.350;2024-01-25T15:39:14;97338.56;;;4.39;100.00
596;BME280;19946;49.306;11.350;2024-01-25T15:42:15;97321.38;;;4.22;100.00
596;BME280;19946;49.306;11.350;2024-01-25T15:45:16;97386.34;;;4.42;100.00
596;BME280;19946;49.306;11.350;2024-01-25T15:48:16;97355.00;;;4.16;100.00
596;BME280;19946;49.306;11.350;2024-01-25T15:51:17;97352.56;;;4.13;100.00
596;BME280;19946;49.306;11.350;2024-01-25T15:54:18;97337.25;;;3.93;100.00
596;BME280;19946;49.306;11.350;2024-01-25T15:57:19;97335.09;;;3.84;100.00
596;BME280;19946;49.306;11.350;2024-01-25T16:00:20;97331.00;;;3.80;100.00
596;BME280;19946;49.306;11.350;2024-01-25T16:03:21;97422.66;;;4.32;100.00
596;BME280;19946;49.306;11.350;2024-01-25T16:06:22;97351.00;;;3.90;100.00
596;BME280;19946;49.306;11.350;2024-01-25T16:09:23;97415.34;;;4.23;100.00
596;BME280;19946;49.306;11.350;2024-01-25T16:12:23;97336.66;;;3.67;100.00
596;BME280;19946;49.306;11.350;2024-01-25T16:15:25;97345.09;;;3.70;100.00